Time;durP1;ratioP1;P1;durP2;ratioP2;P2;SDS_P1;SDS_P2;PMS_P1;PMS_P2;Temp;Humidity;BMP_temperature;BMP_pressure;BME280_temperature;BME280_humidity;BME280_pressure;Samples;Min_cycle;Max_cycle;Signal;HPM_P1;HPM_P2
2023/03/29 00:00:52;;;;;;;1.80;1.30;;;;;;;;;;5104575;28;20199;-80
2023/03/29 00:03:19;;;;;;;1.00;1.00;;;;;;;;;;5103348;28;20201;-80
2023/03/29 00:05:45;;;;;;;1.27;1.17;;;;;;;;;;5105346;28;20284;-80
2023/03/29 00:08:13;;;;;;;1.37;1.23;;;;;;;;;;5103147;28;20231;-81
2023/03/29 00:10:41;;;;;;;1.00;1.00;;;;;;;;;;5103776;28;20714;-80
2023/03/29 00:13:07;;;;;;;1.00;1.00;;;;;;;;;;5091139;28;20287;-80
2023/03/29 00:15:34;;;;;;;2.43;1.13;;;;;;;;;;5104108;28;20199;-80
2023/03/29 00:18:02;;;;;;;1.30;1.20;;;;;;;;;;5099026;28;20207;-80
2023/03/29 00:20:29;;;;;;;1.07;1.07;;;;;;;;;;5097126;28;20262;-80
2023/03/29 00:22:56;;;;;;;1.10;1.10;;;;;;;;;;5102004;28;20697;-79
2023/03/29 00:25:22;;;;;;;1.00;1.00;;;;;;;;;;5104005;28;20226;-80
2023/03/29 00:27:49;;;;;;;1.67;1.20;;;;;;;;;;5090663;28;20644;-79
2023/03/29 00:30:16;;;;;;;1.00;1.00;;;;;;;;;;5093082;28;20292;-80
2023/03/29 00:32:43;;;;;;;1.17;1.17;;;;;;;;;;5104513;28;20196;-80
2023/03/29 00:35:11;;;;;;;1.00;1.00;;;;;;;;;;5098808;28;20270;-80
2023/03/29 00:37:38;;;;;;;1.00;1.00;;;;;;;;;;5093994;28;20989;-80
2023/03/29 00:40:09;;;;;;;0.90;0.90;;;;;;;;;;5097684;28;20222;-80
2023/03/29 00:42:36;;;;;;;1.10;1.10;;;;;;;;;;5103657;28;20204;-80
2023/03/29 00:45:06;;;;;;;1.00;1.00;;;;;;;;;;5108179;28;20636;-80
2023/03/29 00:47:40;;;;;;;1.20;1.10;;;;;;;;;;5105789;28;20203;-80
2023/03/29 00:50:13;;;;;;;1.73;1.30;;;;;;;;;;5100506;28;20223;-80
2023/03/29 00:52:41;;;;;;;1.73;1.20;;;;;;;;;;5114507;28;20200;-80
2023/03/29 00:55:11;;;;;;;1.57;1.20;;;;;;;;;;5101102;28;20204;-80
2023/03/29 00:57:39;;;;;;;1.27;1.27;;;;;;;;;;5099717;28;20200;-80
2023/03/29 01:00:08;;;;;;;0.90;0.90;;;;;;;;;;5102611;28;20260;-80
2023/03/29 01:02:38;;;;;;;1.20;1.20;;;;;;;;;;5099088;28;20197;-80
2023/03/29 01:05:07;;;;;;;1.57;1.20;;;;;;;;;;5103160;28;20199;-79
2023/03/29 01:07:40;;;;;;;1.10;1.10;;;;;;;;;;5110371;28;20232;-80
2023/03/29 01:10:11;;;;;;;1.10;1.10;;;;;;;;;;5094350;28;20652;-80
2023/03/29 01:12:42;;;;;;;1.40;1.30;;;;;;;;;;5093898;28;20204;-80
2023/03/29 01:15:10;;;;;;;1.77;1.77;;;;;;;;;;5094009;28;20196;-80
2023/03/29 01:17:37;;;;;;;1.23;1.17;;;;;;;;;;5098145;28;20731;-80
2023/03/29 01:20:09;;;;;;;1.00;1.00;;;;;;;;;;5113830;28;20257;-80
2023/03/29 01:22:45;;;;;;;1.20;1.10;;;;;;;;;;5100221;28;20203;-80
2023/03/29 01:25:16;;;;;;;1.10;1.10;;;;;;;;;;5099920;28;20203;-81
2023/03/29 01:27:49;;;;;;;1.43;1.33;;;;;;;;;;5106443;28;20196;-80
2023/03/29 01:30:18;;;;;;;1.10;1.00;;;;;;;;;;5106780;28;20223;-80
2023/03/29 01:32:49;;;;;;;1.30;1.20;;;;;;;;;;5093374;28;20279;-79
2023/03/29 01:35:19;;;;;;;4.43;1.10;;;;;;;;;;5109617;28;20204;-80
2023/03/29 01:37:50;;;;;;;1.30;1.20;;;;;;;;;;5113561;28;20204;-80
2023/03/29 01:40:17;;;;;;;1.20;1.17;;;;;;;;;;5099434;28;20191;-80
2023/03/29 01:42:50;;;;;;;3.30;1.20;;;;;;;;;;5113590;28;20198;-80
2023/03/29 01:45:23;;;;;;;1.47;1.37;;;;;;;;;;5099790;28;20207;-80
2023/03/29 01:47:55;;;;;;;1.60;1.50;;;;;;;;;;5100668;28;20203;-80
2023/03/29 01:50:29;;;;;;;1.67;1.53;;;;;;;;;;5093087;28;20215;-80
2023/03/29 01:52:59;;;;;;;1.17;1.17;;;;;;;;;;5108085;28;20253;-80
2023/03/29 01:55:31;;;;;;;2.47;1.27;;;;;;;;;;5104553;28;20231;-80
2023/03/29 01:58:00;;;;;;;0.90;0.90;;;;;;;;;;5106642;28;20657;-79
2023/03/29 02:00:28;;;;;;;3.33;1.20;;;;;;;;;;5102629;28;20242;-80
2023/03/29 02:02:58;;;;;;;1.10;1.10;;;;;;;;;;5099499;28;20616;-80
2023/03/29 02:05:27;;;;;;;1.20;1.10;;;;;;;;;;5102514;28;20204;-80
2023/03/29 02:07:55;;;;;;;1.30;1.30;;;;;;;;;;5092795;28;20227;-80
2023/03/29 02:10:23;;;;;;;1.53;1.43;;;;;;;;;;5103852;28;20227;-80
2023/03/29 02:12:50;;;;;;;1.50;1.40;;;;;;;;;;5093476;28;20839;-80
2023/03/29 02:15:20;;;;;;;1.00;1.00;;;;;;;;;;5092568;28;20212;-80
2023/03/29 02:17:48;;;;;;;1.40;1.20;;;;;;;;;;5092563;28;20200;-80
2023/03/29 02:20:18;;;;;;;1.23;1.13;;;;;;;;;;5092630;28;20598;-80
2023/03/29 02:22:51;;;;;;;1.40;1.30;;;;;;;;;;5099805;28;20622;-80
2023/03/29 02:25:19;;;;;;;1.27;1.17;;;;;;;;;;5098698;28;20568;-80
2023/03/29 02:27:46;;;;;;;1.40;1.30;;;;;;;;;;5103872;28;20207;-79
2023/03/29 02:30:14;;;;;;;2.10;1.00;;;;;;;;;;5093808;28;20655;-80
2023/03/29 02:32:49;;;;;;;1.10;1.10;;;;;;;;;;5103040;28;20250;-80
2023/03/29 02:35:18;;;;;;;1.40;1.40;;;;;;;;;;5092116;28;20192;-80
2023/03/29 02:37:46;;;;;;;1.83;1.40;;;;;;;;;;5103749;28;20585;-79
2023/03/29 02:40:14;;;;;;;1.20;1.10;;;;;;;;;;5098188;28;20202;-80
2023/03/29 02:42:41;;;;;;;1.20;1.20;;;;;;;;;;5112049;28;20211;-80
2023/03/29 02:45:10;;;;;;;1.63;1.53;;;;;;;;;;5094029;28;20192;-80
2023/03/29 02:47:39;;;;;;;1.73;1.60;;;;;;;;;;5092102;28;20215;-80
2023/03/29 02:50:08;;;;;;;4.00;1.17;;;;;;;;;;5105463;28;20215;-80
2023/03/29 02:52:38;;;;;;;1.10;1.10;;;;;;;;;;5103745;28;20199;-79
2023/03/29 02:55:08;;;;;;;1.30;1.30;;;;;;;;;;5092130;28;20268;-80
2023/03/29 02:57:37;;;;;;;1.83;1.73;;;;;;;;;;5091573;28;20679;-80
2023/03/29 03:00:08;;;;;;;1.30;1.20;;;;;;;;;;5099248;28;20199;-80
2023/03/29 03:02:36;;;;;;;1.63;1.53;;;;;;;;;;5097622;28;20205;-80
2023/03/29 03:05:03;;;;;;;1.00;1.00;;;;;;;;;;5111873;28;20203;-80
2023/03/29 03:07:32;;;;;;;1.30;1.20;;;;;;;;;;5095395;28;20615;-81
2023/03/29 03:09:59;;;;;;;3.37;1.87;;;;;;;;;;5091797;28;20227;-81
2023/03/29 03:12:26;;;;;;;2.43;1.70;;;;;;;;;;5091277;28;20204;-80
2023/03/29 03:14:53;;;;;;;2.83;1.77;;;;;;;;;;5091192;28;20208;-81
2023/03/29 03:17:21;;;;;;;1.50;1.50;;;;;;;;;;5104878;28;20231;-81
2023/03/29 03:19:48;;;;;;;2.33;1.83;;;;;;;;;;5100830;28;20200;-81
2023/03/29 03:22:15;;;;;;;2.53;1.83;;;;;;;;;;5108644;28;20302;-81
2023/03/29 03:24:44;;;;;;;4.77;2.27;;;;;;;;;;5101160;28;20690;-81
2023/03/29 03:27:12;;;;;;;2.03;1.83;;;;;;;;;;5111064;28;20207;-81
2023/03/29 03:29:40;;;;;;;2.77;1.77;;;;;;;;;;5110943;28;20210;-81
2023/03/29 03:32:07;;;;;;;3.17;1.80;;;;;;;;;;5097442;28;20672;-81
2023/03/29 03:34:34;;;;;;;2.27;2.07;;;;;;;;;;5100498;28;20243;-80
2023/03/29 03:37:01;;;;;;;1.40;1.30;;;;;;;;;;5090836;28;20202;-81
2023/03/29 03:39:28;;;;;;;1.60;1.50;;;;;;;;;;5091049;28;20663;-81
2023/03/29 03:41:56;;;;;;;1.50;1.40;;;;;;;;;;5090872;28;20697;-81
2023/03/29 03:44:22;;;;;;;1.37;1.10;;;;;;;;;;5091383;28;20222;-81
2023/03/29 03:46:49;;;;;;;1.67;1.53;;;;;;;;;;5104086;28;20643;-80
2023/03/29 03:49:16;;;;;;;2.47;1.90;;;;;;;;;;5103501;28;20576;-80
2023/03/29 03:51:44;;;;;;;4.30;1.57;;;;;;;;;;5091134;28;20284;-79
2023/03/29 03:54:11;;;;;;;1.60;1.50;;;;;;;;;;5088809;28;20200;-78
2023/03/29 03:56:37;;;;;;;2.23;1.47;;;;;;;;;;5090215;28;20526;-78
2023/03/29 03:59:06;;;;;;;1.70;1.30;;;;;;;;;;5091794;28;20208;-79
2023/03/29 04:01:34;;;;;;;1.57;1.47;;;;;;;;;;5103681;28;20191;-78
2023/03/29 04:04:00;;;;;;;1.93;1.80;;;;;;;;;;5104041;28;20256;-78
2023/03/29 04:06:29;;;;;;;1.73;1.63;;;;;;;;;;5103528;28;20214;-79
2023/03/29 04:08:56;;;;;;;1.60;1.50;;;;;;;;;;5090560;28;20665;-79
2023/03/29 04:11:23;;;;;;;2.27;1.87;;;;;;;;;;5090284;28;20719;-79
2023/03/29 04:13:50;;;;;;;1.80;1.70;;;;;;;;;;5103955;28;20206;-79
2023/03/29 04:16:18;;;;;;;2.17;1.97;;;;;;;;;;5103542;28;20258;-79
2023/03/29 04:18:45;;;;;;;2.67;1.17;;;;;;;;;;5104497;28;20267;-78
2023/03/29 04:21:11;;;;;;;1.67;1.57;;;;;;;;;;5090585;28;20212;-85
2023/03/29 04:23:38;;;;;;;2.80;2.20;;;;;;;;;;5091467;28;20269;-79
2023/03/29 04:26:06;;;;;;;1.70;1.60;;;;;;;;;;5102794;28;20674;-79
2023/03/29 04:28:33;;;;;;;4.20;1.43;;;;;;;;;;5104767;28;20286;-79
2023/03/29 04:31:00;;;;;;;1.63;1.53;;;;;;;;;;5098774;28;20254;-78
2023/03/29 04:33:28;;;;;;;1.83;1.73;;;;;;;;;;5103953;28;20200;-78
2023/03/29 04:35:55;;;;;;;1.80;1.70;;;;;;;;;;5096614;28;20303;-78
2023/03/29 04:38:22;;;;;;;2.30;2.10;;;;;;;;;;5095309;28;20208;-78
2023/03/29 04:40:49;;;;;;;1.40;1.33;;;;;;;;;;5098724;28;20207;-78
2023/03/29 04:43:16;;;;;;;1.70;1.60;;;;;;;;;;5094852;28;20235;-78
2023/03/29 04:45:43;;;;;;;1.90;1.80;;;;;;;;;;5099223;28;20312;-78
2023/03/29 04:48:10;;;;;;;1.83;1.67;;;;;;;;;;5096817;28;20188;-78
2023/03/29 04:50:38;;;;;;;2.70;1.80;;;;;;;;;;5100812;28;20635;-79
2023/03/29 04:53:06;;;;;;;1.93;1.43;;;;;;;;;;5102987;28;20208;-78
2023/03/29 04:55:32;;;;;;;2.13;1.40;;;;;;;;;;5090354;28;20230;-78
2023/03/29 04:58:00;;;;;;;1.97;1.80;;;;;;;;;;5090138;28;20670;-78
2023/03/29 05:00:27;;;;;;;2.00;1.53;;;;;;;;;;5089933;28;20207;-78
2023/03/29 05:02:54;;;;;;;4.03;2.63;;;;;;;;;;5103735;28;20287;-78
2023/03/29 05:05:21;;;;;;;5.67;3.60;;;;;;;;;;5101113;28;20234;-79
2023/03/29 05:07:49;;;;;;;4.53;3.37;;;;;;;;;;5092286;28;20220;-78
2023/03/29 05:10:16;;;;;;;2.93;2.67;;;;;;;;;;5101598;28;20200;-78
2023/03/29 05:12:43;;;;;;;4.13;3.30;;;;;;;;;;5095850;28;20223;-79
2023/03/29 05:15:10;;;;;;;3.70;2.50;;;;;;;;;;5099623;28;20619;-79
2023/03/29 05:17:38;;;;;;;5.73;2.90;;;;;;;;;;5093755;28;20253;-79
2023/03/29 05:20:09;;;;;;;3.57;2.43;;;;;;;;;;5106362;28;20272;-78
2023/03/29 05:22:37;;;;;;;2.37;2.20;;;;;;;;;;5099818;28;20211;-79
2023/03/29 05:25:06;;;;;;;3.60;2.60;;;;;;;;;;5101694;28;20211;-79
2023/03/29 05:27:33;;;;;;;3.07;2.60;;;;;;;;;;5100757;28;20206;-79
2023/03/29 05:30:00;;;;;;;2.37;2.03;;;;;;;;;;5113288;28;20290;-80
2023/03/29 05:32:27;;;;;;;5.77;2.90;;;;;;;;;;5100357;28;20224;-80
2023/03/29 05:34:54;;;;;;;5.80;2.77;;;;;;;;;;5113547;28;20214;-80
2023/03/29 05:37:21;;;;;;;2.30;2.10;;;;;;;;;;5106052;28;20269;-80
2023/03/29 05:39:48;;;;;;;2.57;1.80;;;;;;;;;;5094044;28;20200;-80
2023/03/29 05:42:21;;;;;;;3.67;2.20;;;;;;;;;;5105940;28;20227;-80
2023/03/29 05:44:47;;;;;;;1.73;1.63;;;;;;;;;;5093086;28;20594;-80
2023/03/29 05:47:14;;;;;;;2.03;1.80;;;;;;;;;;5102199;28;20199;-81
2023/03/29 05:49:41;;;;;;;2.70;1.60;;;;;;;;;;5099685;28;20748;-81
2023/03/29 05:52:08;;;;;;;8.97;2.30;;;;;;;;;;5104058;28;20235;-81
2023/03/29 05:54:35;;;;;;;1.83;1.70;;;;;;;;;;5108529;28;20196;-80
2023/03/29 05:57:01;;;;;;;2.73;2.47;;;;;;;;;;5104179;28;20205;-80
2023/03/29 05:59:29;;;;;;;4.43;1.57;;;;;;;;;;5092804;28;20212;-80
2023/03/29 06:01:56;;;;;;;2.03;1.93;;;;;;;;;;5092685;28;20285;-80
2023/03/29 06:04:23;;;;;;;1.80;1.70;;;;;;;;;;5092752;28;20627;-80
2023/03/29 06:06:51;;;;;;;2.43;1.93;;;;;;;;;;5092373;28;20278;-80
2023/03/29 06:09:19;;;;;;;2.20;1.60;;;;;;;;;;5106646;28;20261;-80
2023/03/29 06:11:46;;;;;;;2.03;1.77;;;;;;;;;;5092304;28;20259;-81
2023/03/29 06:14:13;;;;;;;1.93;1.83;;;;;;;;;;5092560;28;20224;-80
2023/03/29 06:16:42;;;;;;;11.17;5.60;;;;;;;;;;5102887;28;20207;-81
2023/03/29 06:19:08;;;;;;;5.53;3.00;;;;;;;;;;5108719;28;20207;-81
2023/03/29 06:21:35;;;;;;;1.97;1.87;;;;;;;;;;5103066;28;20716;-81
2023/03/29 06:24:02;;;;;;;3.97;3.60;;;;;;;;;;5108816;28;20200;-80
2023/03/29 06:26:30;;;;;;;7.63;4.63;;;;;;;;;;5092499;28;20208;-80
2023/03/29 06:28:57;;;;;;;3.87;3.47;;;;;;;;;;5105940;28;20254;-80
2023/03/29 06:31:24;;;;;;;6.77;3.43;;;;;;;;;;5103538;28;20310;-80
2023/03/29 06:33:52;;;;;;;3.97;3.20;;;;;;;;;;5094201;28;20204;-80
2023/03/29 06:36:19;;;;;;;8.00;4.30;;;;;;;;;;5104296;28;20203;-80
2023/03/29 06:38:46;;;;;;;2.63;2.43;;;;;;;;;;5106446;28;20283;-80
2023/03/29 06:41:13;;;;;;;4.37;1.80;;;;;;;;;;5092219;28;20203;-80
2023/03/29 06:43:41;;;;;;;2.50;2.30;;;;;;;;;;5105763;28;20207;-82
2023/03/29 06:46:10;;;;;;;1.97;1.87;;;;;;;;;;5092580;28;20303;-80
2023/03/29 06:48:40;;;;;;;2.50;2.30;;;;;;;;;;5092055;28;20197;-80
2023/03/29 06:51:08;;;;;;;2.30;2.00;;;;;;;;;;5105101;28;20627;-80
2023/03/29 06:53:35;;;;;;;4.67;1.90;;;;;;;;;;5092170;28;20289;-80
2023/03/29 06:56:04;;;;;;;2.33;2.13;;;;;;;;;;5092555;28;20226;-80
2023/03/29 06:58:31;;;;;;;2.07;1.80;;;;;;;;;;5112043;28;20213;-80
2023/03/29 07:01:00;;;;;;;2.47;2.27;;;;;;;;;;5098363;28;20200;-80
2023/03/29 07:03:30;;;;;;;2.10;1.90;;;;;;;;;;5102917;28;20287;-80
2023/03/29 07:06:02;;;;;;;2.00;1.57;;;;;;;;;;5104609;28;20204;-81
2023/03/29 07:08:30;;;;;;;4.07;1.60;;;;;;;;;;5092166;28;20242;-80
2023/03/29 07:10:58;;;;;;;1.50;1.40;;;;;;;;;;5091218;28;20285;-80
2023/03/29 07:13:25;;;;;;;1.57;1.47;;;;;;;;;;5101725;28;20310;-79
2023/03/29 07:15:52;;;;;;;2.10;1.70;;;;;;;;;;5107686;28;20208;-80
2023/03/29 07:18:19;;;;;;;1.70;1.60;;;;;;;;;;5091622;28;20204;-80
2023/03/29 07:20:47;;;;;;;3.73;1.47;;;;;;;;;;5105205;28;20253;-80
2023/03/29 07:23:14;;;;;;;1.30;1.30;;;;;;;;;;5102605;28;20196;-80
2023/03/29 07:25:43;;;;;;;7.97;1.43;;;;;;;;;;5097762;28;20211;-80
2023/03/29 07:28:10;;;;;;;2.17;1.70;;;;;;;;;;5111553;28;20195;-80
2023/03/29 07:30:37;;;;;;;5.00;2.43;;;;;;;;;;5093016;28;20723;-80
2023/03/29 07:33:04;;;;;;;1.53;1.40;;;;;;;;;;5102824;28;20341;-80
2023/03/29 07:35:31;;;;;;;2.20;2.00;;;;;;;;;;5092681;28;20207;-80
2023/03/29 07:37:58;;;;;;;2.40;2.20;;;;;;;;;;5103065;28;20281;-80
2023/03/29 07:40:25;;;;;;;1.93;1.60;;;;;;;;;;5105775;28;20231;-80
2023/03/29 07:42:54;;;;;;;1.27;1.10;;;;;;;;;;5090874;28;20646;-80
2023/03/29 07:45:22;;;;;;;1.83;1.50;;;;;;;;;;5091008;28;20208;-80
2023/03/29 07:47:49;;;;;;;1.17;1.17;;;;;;;;;;5104149;28;20217;-80
2023/03/29 07:50:17;;;;;;;1.87;1.77;;;;;;;;;;5104154;28;20748;-80
2023/03/29 07:52:44;;;;;;;1.60;1.50;;;;;;;;;;5090717;28;20224;-81
2023/03/29 07:55:12;;;;;;;2.60;1.93;;;;;;;;;;5097916;28;20612;-80
2023/03/29 07:57:39;;;;;;;2.20;2.00;;;;;;;;;;5110279;28;20635;-80
2023/03/29 08:00:14;;;;;;;1.70;1.60;;;;;;;;;;5091250;28;20201;-80
2023/03/29 08:02:42;;;;;;;1.97;1.23;;;;;;;;;;5091095;28;20211;-80
2023/03/29 08:05:11;;;;;;;2.13;1.67;;;;;;;;;;5090682;28;20208;-80
2023/03/29 08:07:40;;;;;;;3.00;2.37;;;;;;;;;;5090819;28;20329;-80
2023/03/29 08:10:09;;;;;;;2.07;1.70;;;;;;;;;;5101527;28;20202;-79
2023/03/29 08:12:36;;;;;;;2.83;1.40;;;;;;;;;;5096215;28;20226;-79
2023/03/29 08:15:03;;;;;;;3.97;3.57;;;;;;;;;;5100339;28;20202;-79
2023/03/29 08:17:31;;;;;;;4.10;3.30;;;;;;;;;;5094532;28;20203;-79
2023/03/29 08:19:57;;;;;;;4.57;2.90;;;;;;;;;;5110731;28;20592;-79
2023/03/29 08:22:24;;;;;;;1.90;1.70;;;;;;;;;;5110113;28;20596;-80
2023/03/29 08:24:51;;;;;;;1.80;1.70;;;;;;;;;;5099891;28;20656;-80
2023/03/29 08:27:18;;;;;;;2.13;1.90;;;;;;;;;;5094917;28;20204;-80
2023/03/29 08:29:46;;;;;;;1.60;1.40;;;;;;;;;;5099351;28;20216;-80
2023/03/29 08:32:16;;;;;;;1.50;1.40;;;;;;;;;;5094843;28;20706;-80
2023/03/29 08:34:44;;;;;;;1.97;1.57;;;;;;;;;;5098646;28;20204;-79
2023/03/29 08:37:10;;;;;;;1.60;1.50;;;;;;;;;;5109956;28;20191;-79
2023/03/29 08:39:37;;;;;;;3.60;1.93;;;;;;;;;;5097888;28;20200;-79
2023/03/29 08:42:23;;;;;;;1.70;1.50;;;;;;;;;;5109837;28;20249;-79
2023/03/29 08:45:00;;;;;;;1.60;1.50;;;;;;;;;;5108604;28;20682;-79
2023/03/29 08:47:33;;;;;;;1.80;1.43;;;;;;;;;;5090867;28;20204;-79
2023/03/29 08:50:01;;;;;;;8.47;1.80;;;;;;;;;;5095378;28;20686;-80
2023/03/29 08:52:33;;;;;;;4.80;1.67;;;;;;;;;;5102722;28;20315;-79
2023/03/29 08:55:10;;;;;;;1.30;1.20;;;;;;;;;;5094484;28;20257;-79
2023/03/29 08:57:42;;;;;;;2.47;2.13;;;;;;;;;;5094237;28;20200;-80
2023/03/29 09:00:19;;;;;;;2.10;1.97;;;;;;;;;;5106889;28;20257;-79
2023/03/29 09:02:46;;;;;;;2.13;1.70;;;;;;;;;;5094073;28;20212;-80
2023/03/29 09:05:21;;;;;;;1.10;1.10;;;;;;;;;;5094054;28;20200;-79
2023/03/29 09:07:48;;;;;;;1.83;1.60;;;;;;;;;;5111510;28;20717;-80
2023/03/29 09:10:16;;;;;;;1.83;1.53;;;;;;;;;;5114029;28;20208;-79
2023/03/29 09:12:58;;;;;;;1.83;1.50;;;;;;;;;;5099578;28;20681;-79
2023/03/29 09:15:28;;;;;;;1.57;1.47;;;;;;;;;;5100450;28;20211;-80
2023/03/29 09:18:02;;;;;;;1.60;1.50;;;;;;;;;;5094075;28;20626;-80
2023/03/29 09:20:38;;;;;;;1.63;1.53;;;;;;;;;;5107070;28;20207;-79
2023/03/29 09:23:14;;;;;;;2.20;2.00;;;;;;;;;;5093858;28;20697;-79
2023/03/29 09:25:49;;;;;;;2.20;1.90;;;;;;;;;;5098340;28;20195;-79
2023/03/29 09:28:19;;;;;;;3.10;2.40;;;;;;;;;;5101052;28;20600;-79
2023/03/29 09:30:50;;;;;;;2.77;1.93;;;;;;;;;;5099929;28;20256;-80
2023/03/29 09:33:23;;;;;;;4.13;2.70;;;;;;;;;;5100219;28;20730;-81
2023/03/29 09:35:55;;;;;;;10.00;6.57;;;;;;;;;;5105635;28;20200;-80
2023/03/29 09:38:22;;;;;;;2.63;1.97;;;;;;;;;;5095991;28;20277;-80
2023/03/29 09:40:52;;;;;;;3.43;2.60;;;;;;;;;;5103860;28;20266;-79
2023/03/29 09:43:26;;;;;;;2.30;2.10;;;;;;;;;;5093241;28;20654;-79
2023/03/29 09:45:56;;;;;;;2.87;2.60;;;;;;;;;;5104344;28;20199;-79
2023/03/29 09:48:23;;;;;;;2.40;2.20;;;;;;;;;;5108370;28;20207;-79
2023/03/29 09:50:52;;;;;;;1.40;1.30;;;;;;;;;;5092868;28;20686;-80
2023/03/29 09:53:19;;;;;;;1.70;1.60;;;;;;;;;;5106429;28;20223;-80
2023/03/29 09:55:49;;;;;;;1.80;1.60;;;;;;;;;;5105818;28;20207;-80
2023/03/29 09:58:17;;;;;;;2.13;2.03;;;;;;;;;;5093376;28;20596;-80
2023/03/29 10:00:44;;;;;;;2.83;2.60;;;;;;;;;;5106442;28;20208;-81
2023/03/29 10:03:18;;;;;;;2.07;1.87;;;;;;;;;;5093033;28;20287;-80
2023/03/29 10:05:46;;;;;;;1.53;1.43;;;;;;;;;;5093970;28;20204;-80
2023/03/29 10:08:21;;;;;;;1.50;1.40;;;;;;;;;;5105169;28;20705;-79
2023/03/29 10:10:48;;;;;;;1.40;1.30;;;;;;;;;;5093529;28;20595;-80
2023/03/29 10:13:19;;;;;;;1.90;1.70;;;;;;;;;;5093174;28;20228;-79
2023/03/29 10:15:57;;;;;;;1.60;1.50;;;;;;;;;;5095552;28;20592;-79
2023/03/29 10:18:25;;;;;;;1.80;1.70;;;;;;;;;;5101523;28;20203;-80
2023/03/29 10:20:58;;;;;;;1.50;1.40;;;;;;;;;;5092248;28;20689;-80
2023/03/29 10:23:31;;;;;;;1.50;1.40;;;;;;;;;;5092737;28;20295;-80
2023/03/29 10:25:58;;;;;;;1.47;1.37;;;;;;;;;;5092252;28;20200;-80
2023/03/29 10:28:27;;;;;;;2.40;1.50;;;;;;;;;;5106368;28;20200;-80
2023/03/29 10:30:55;;;;;;;1.67;1.40;;;;;;;;;;5112658;28;20203;-80
2023/03/29 10:33:23;;;;;;;2.10;1.60;;;;;;;;;;5111824;28;20223;-80
2023/03/29 10:35:51;;;;;;;1.47;1.37;;;;;;;;;;5092126;28;20254;-81
2023/03/29 10:38:19;;;;;;;4.07;1.67;;;;;;;;;;5094142;28;20205;-80
2023/03/29 10:40:49;;;;;;;2.57;1.60;;;;;;;;;;5103770;28;20231;-80
2023/03/29 10:43:22;;;;;;;1.70;1.60;;;;;;;;;;5092542;28;20207;-80
2023/03/29 10:45:49;;;;;;;1.80;1.70;;;;;;;;;;5102008;28;20207;-80
2023/03/29 10:48:18;;;;;;;1.77;1.67;;;;;;;;;;5098815;28;20203;-80
2023/03/29 10:50:50;;;;;;;1.60;1.40;;;;;;;;;;5101101;28;20204;-79
2023/03/29 10:53:22;;;;;;;1.97;1.77;;;;;;;;;;5110619;28;20215;-80
2023/03/29 10:56:08;;;;;;;1.70;1.50;;;;;;;;;;5112544;28;20203;-79
2023/03/29 10:58:40;;;;;;;1.90;1.53;;;;;;;;;;5111645;28;20191;-79
2023/03/29 11:01:12;;;;;;;1.53;1.43;;;;;;;;;;5098228;28;20195;-79
2023/03/29 11:04:02;;;;;;;4.40;2.33;;;;;;;;;;5101239;28;20682;-79
2023/03/29 11:06:34;;;;;;;4.33;2.40;;;;;;;;;;5096368;28;20200;-80
2023/03/29 11:09:02;;;;;;;3.90;2.37;;;;;;;;;;5097473;28;20318;-80
2023/03/29 11:11:44;;;;;;;1.83;1.73;;;;;;;;;;5104110;28;20560;-80
2023/03/29 11:14:16;;;;;;;1.37;1.27;;;;;;;;;;5104332;28;20289;-80
2023/03/29 11:16:46;;;;;;;1.67;1.40;;;;;;;;;;5101974;28;20200;-80
2023/03/29 11:19:24;;;;;;;2.47;1.77;;;;;;;;;;5106906;28;20235;-80
2023/03/29 11:21:55;;;;;;;3.53;1.97;;;;;;;;;;5104592;28;20283;-79
2023/03/29 11:24:33;;;;;;;1.43;1.20;;;;;;;;;;5091357;28;20257;-81
2023/03/29 11:27:12;;;;;;;2.60;1.40;;;;;;;;;;5104713;28;20209;-80
2023/03/29 11:29:44;;;;;;;2.60;1.50;;;;;;;;;;5101738;28;20628;-79
2023/03/29 11:32:15;;;;;;;1.77;1.67;;;;;;;;;;5097839;28;20195;-80
2023/03/29 11:34:52;;;;;;;2.03;1.93;;;;;;;;;;5099321;28;20255;-78
2023/03/29 11:37:24;;;;;;;3.23;1.50;;;;;;;;;;5091386;28;20197;-78
2023/03/29 11:40:06;;;;;;;1.60;1.50;;;;;;;;;;5104825;28;20204;-79
2023/03/29 11:42:37;;;;;;;1.47;1.37;;;;;;;;;;5091169;28;20261;-79
2023/03/29 11:45:06;;;;;;;1.73;1.63;;;;;;;;;;5094463;28;20587;-79
2023/03/29 11:47:36;;;;;;;1.57;1.43;;;;;;;;;;5111395;28;20643;-79
2023/03/29 11:50:06;;;;;;;1.73;1.63;;;;;;;;;;5097411;28;20206;-79
2023/03/29 11:52:36;;;;;;;1.60;1.50;;;;;;;;;;5099712;28;20234;-78
2023/03/29 11:55:06;;;;;;;2.47;2.27;;;;;;;;;;5096749;28;20230;-79
2023/03/29 11:57:38;;;;;;;2.43;1.70;;;;;;;;;;5111109;28;20264;-79
2023/03/29 12:00:07;;;;;;;2.20;2.00;;;;;;;;;;5091261;28;20627;-79
2023/03/29 12:02:39;;;;;;;2.23;1.93;;;;;;;;;;5090776;28;20204;-78
2023/03/29 12:05:11;;;;;;;3.77;1.53;;;;;;;;;;5090641;28;20200;-79
2023/03/29 12:07:43;;;;;;;1.53;1.10;;;;;;;;;;5090049;28;20228;-79
2023/03/29 12:10:17;;;;;;;1.73;1.60;;;;;;;;;;5101549;28;20199;-79
2023/03/29 12:12:47;;;;;;;2.30;2.10;;;;;;;;;;5096566;28;20206;-79
2023/03/29 12:15:19;;;;;;;1.80;1.70;;;;;;;;;;5099042;28;20285;-79
2023/03/29 12:17:50;;;;;;;1.53;1.43;;;;;;;;;;5095751;28;20746;-79
2023/03/29 12:20:22;;;;;;;1.50;1.40;;;;;;;;;;5110689;28;20571;-79
2023/03/29 12:22:49;;;;;;;2.70;2.20;;;;;;;;;;5090647;28;20204;-79
2023/03/29 12:25:18;;;;;;;2.23;1.30;;;;;;;;;;5094894;28;20204;-79
2023/03/29 12:27:55;;;;;;;2.37;2.13;;;;;;;;;;5114911;28;20210;-78
2023/03/29 12:30:32;;;;;;;1.40;1.30;;;;;;;;;;5101626;28;20207;-79
2023/03/29 12:33:20;;;;;;;3.70;2.83;;;;;;;;;;5103277;28;20196;-79
2023/03/29 12:35:55;;;;;;;2.20;1.80;;;;;;;;;;5063213;28;20192;-79
2023/03/29 12:38:26;;;;;;;5.80;3.97;;;;;;;;;;5110257;28;20207;-78
2023/03/29 12:40:55;;;;;;;7.50;4.43;;;;;;;;;;5114841;28;20697;-78
2023/03/29 12:43:27;;;;;;;6.23;4.80;;;;;;;;;;5111571;28;20623;-78
2023/03/29 12:45:55;;;;;;;2.83;2.53;;;;;;;;;;5105064;28;20199;-78
2023/03/29 12:48:24;;;;;;;2.60;1.93;;;;;;;;;;5096543;28;20200;-78
2023/03/29 12:50:52;;;;;;;10.97;3.60;;;;;;;;;;5094389;28;20203;-78
2023/03/29 12:53:23;;;;;;;2.20;2.00;;;;;;;;;;5099085;28;20195;-78
2023/03/29 12:55:55;;;;;;;1.50;1.40;;;;;;;;;;5102072;28;20192;-78
2023/03/29 12:58:41;;;;;;;4.70;2.50;;;;;;;;;;5100968;28;20393;-78
2023/03/29 13:01:10;;;;;;;2.23;2.03;;;;;;;;;;5098079;28;20204;-79
2023/03/29 13:03:48;;;;;;;1.43;1.33;;;;;;;;;;5093723;28;20196;-79
2023/03/29 13:06:27;;;;;;;1.80;1.70;;;;;;;;;;5093824;28;20280;-79
2023/03/29 13:08:59;;;;;;;1.73;1.63;;;;;;;;;;5107708;28;20776;-78
2023/03/29 13:11:28;;;;;;;5.43;1.60;;;;;;;;;;5114469;28;20272;-77
2023/03/29 13:13:56;;;;;;;2.17;2.00;;;;;;;;;;5112914;28;20223;-78
2023/03/29 13:16:30;;;;;;;2.40;1.30;;;;;;;;;;5101964;28;20207;-78
2023/03/29 13:19:05;;;;;;;2.60;1.90;;;;;;;;;;5100337;28;20223;-78
2023/03/29 13:21:41;;;;;;;4.20;2.17;;;;;;;;;;5113816;28;20252;-78
2023/03/29 13:24:26;;;;;;;1.77;1.67;;;;;;;;;;5095450;28;20219;-78
2023/03/29 13:26:57;;;;;;;2.27;2.00;;;;;;;;;;5093940;28;20208;-78
2023/03/29 13:29:46;;;;;;;2.40;2.20;;;;;;;;;;5093776;28;20215;-78
2023/03/29 13:32:25;;;;;;;3.20;1.50;;;;;;;;;;5098648;28;20196;-78
2023/03/29 13:34:58;;;;;;;1.90;1.70;;;;;;;;;;5099720;28;20259;-79
2023/03/29 13:37:34;;;;;;;4.30;2.37;;;;;;;;;;5112789;28;20203;-77
2023/03/29 13:40:01;;;;;;;3.93;2.80;;;;;;;;;;5113876;28;20260;-77
2023/03/29 13:42:38;;;;;;;3.53;2.40;;;;;;;;;;5103834;28;20208;-77
2023/03/29 13:45:13;;;;;;;2.57;1.63;;;;;;;;;;5097823;28;20281;-78
2023/03/29 13:47:42;;;;;;;4.07;3.43;;;;;;;;;;5113611;28;20634;-78
2023/03/29 13:50:15;;;;;;;4.03;2.17;;;;;;;;;;5094083;28;20659;-79
2023/03/29 13:52:48;;;;;;;2.13;1.47;;;;;;;;;;5092714;28;20211;-78
2023/03/29 13:55:18;;;;;;;4.97;1.80;;;;;;;;;;5092730;28;20713;-78
2023/03/29 13:57:51;;;;;;;1.60;1.43;;;;;;;;;;5093176;28;20308;-78
2023/03/29 14:00:24;;;;;;;2.37;1.70;;;;;;;;;;5092668;28;20200;-78
2023/03/29 14:02:51;;;;;;;2.90;1.90;;;;;;;;;;5092997;28;20697;-78
2023/03/29 14:05:21;;;;;;;5.47;1.97;;;;;;;;;;5104115;28;20267;-78
2023/03/29 14:07:51;;;;;;;1.80;1.70;;;;;;;;;;5094744;28;20623;-78
2023/03/29 14:10:21;;;;;;;2.13;1.93;;;;;;;;;;5104442;28;20238;-78
2023/03/29 14:12:48;;;;;;;1.47;1.37;;;;;;;;;;5093281;28;20212;-77
2023/03/29 14:15:22;;;;;;;1.87;1.77;;;;;;;;;;5092827;28;20231;-78
2023/03/29 14:17:52;;;;;;;2.40;1.60;;;;;;;;;;5099092;28;20290;-78
2023/03/29 14:20:19;;;;;;;2.30;1.80;;;;;;;;;;5098330;28;20204;-78
2023/03/29 14:22:46;;;;;;;11.03;5.67;;;;;;;;;;5092262;28;20261;-78
2023/03/29 14:25:16;;;;;;;3.97;2.80;;;;;;;;;;5106342;28;20204;-78
2023/03/29 14:27:43;;;;;;;5.83;4.27;;;;;;;;;;5088715;28;20200;-76
2023/03/29 14:30:21;;;;;;;2.90;2.63;;;;;;;;;;5092032;28;20192;-77
2023/03/29 14:32:50;;;;;;;3.00;2.67;;;;;;;;;;5091978;28;20231;-75
2023/03/29 14:35:17;;;;;;;3.63;3.33;;;;;;;;;;5093885;28;20240;-76
2023/03/29 14:37:44;;;;;;;3.73;3.43;;;;;;;;;;5112085;28;20686;-76
2023/03/29 14:40:17;;;;;;;3.50;2.80;;;;;;;;;;5112039;28;20233;-76
2023/03/29 14:42:45;;;;;;;4.67;2.60;;;;;;;;;;5112529;28;20274;-75
2023/03/29 14:45:14;;;;;;;1.53;1.43;;;;;;;;;;5108757;28;20862;-75
2023/03/29 14:47:45;;;;;;;1.87;1.57;;;;;;;;;;5101968;28;20268;-75
2023/03/29 14:50:19;;;;;;;2.27;1.50;;;;;;;;;;5111886;28;20286;-76
2023/03/29 14:52:47;;;;;;;1.37;1.27;;;;;;;;;;5099267;28;20199;-75
2023/03/29 14:55:15;;;;;;;4.10;3.33;;;;;;;;;;5091370;28;20289;-76
2023/03/29 14:57:42;;;;;;;1.80;1.70;;;;;;;;;;5105066;28;20290;-75